Valenciennes-Denain Airfield

LFAV · Nord-Pas-de-Calais-Picardie, France

2 octobre 2022

Temps Code Temps Temp. Vue Base cloud Vent METAR/SPECI
20:50
L
11 °C 2,5 km 400 ft 250° 250° 5 kt METAR EBCI 021850Z 25005KT 2500 BR SCT002 BKN004 11/11 Q1024 NOSIG
20:20
M
11 °C 6 km - 250° 250° 4 kt METAR EBCI 021820Z 25004KT 6000 FEW004 SCT006 11/11 Q1024 TEMPO 3000 BR BKN004
19:50
M
11 °C 6 km - 250° 250° 5 kt METAR EBCI 021750Z 25005KT 6000 FEW004 SCT006 11/11 Q1023 TEMPO 3000 BR BKN004
19:20
M
12 °C 7 km - 250° 250° 5 kt METAR EBCI 021720Z 25005KT 7000 FEW004 SCT007 12/11 Q1023 TEMPO 3000 BR BKN004
18:50
M
12 °C 7 km - 250° 250° 4 kt METAR EBCI 021650Z 25004KT 7000 FEW004 SCT007 12/11 Q1022 TEMPO 3000 BR BKN004
18:20
I
12 °C 6 km 700 ft 260° 260° 3 kt METAR EBCI 021620Z 26003KT 230V300 6000 SCT004 BKN007 BKN010 12/11 Q1022 TEMPO 3000 BR BKN004
17:50
I
12 °C 6 km 700 ft 290° 290° 3 kt METAR EBCI 021550Z 29003KT 250V320 6000 SCT004 BKN007 BKN020 12/12 Q1022 TEMPO 3000 BR BKN004
17:20
I
13 °C 6 km 600 ft 280° 280° 3 kt METAR EBCI 021520Z 28003KT 250V320 6000 SCT004 BKN006 13/12 Q1021 TEMPO 3000 BR BKN004
16:50
I
12 °C 10 km+ 600 ft 280° 280° 3 kt METAR EBCI 021450Z 28003KT 230V320 9999 SCT004 BKN006 12/12 Q1021 TEMPO BKN004
16:20
I
12 °C 10 km+ 700 ft 290° 290° 4 kt METAR EBCI 021420Z 29004KT 240V340 9999 SCT004 BKN007 12/11 Q1021 TEMPO BKN004
15:50
I
12 °C 10 km+ 800 ft 250° 250° 6 kt METAR EBCI 021350Z 25006KT 9999 SCT004 BKN008 12/11 Q1021 RERA REDZ TEMPO BKN004
15:20
V
12 °C 10 km+ - 240° 240° 7 kt METAR EBCI 021320Z 24007KT 9999 -RADZ SCT009 12/11 Q1021 TEMPO BKN007
14:50
V
12 °C 10 km+ - 250° 250° 4 kt METAR EBCI 021250Z 25004KT 9999 RADZ SCT009 12/11 Q1021 TEMPO RADZ BKN007
14:20
V
12 °C 10 km+ - 230° 230° 6 kt METAR EBCI 021220Z 23006KT 9999 -RADZ SCT009 12/11 Q1020 TEMPO RADZ BKN007
13:50
V
12 °C 10 km+ - 280° 280° 5 kt METAR EBCI 021150Z 28005KT 220V310 9999 -RADZ SCT009 12/10 Q1020 TEMPO RADZ BKN007
13:20
V
12 °C 10 km+ - 250° 250° 5 kt METAR EBCI 021120Z 25005KT 230V290 9999 RADZ SCT007 12/11 Q1020 TEMPO 4000 RADZ BKN005
12:50
I
12 °C 7 km 700 ft 260° 260° 4 kt METAR EBCI 021050Z 26004KT 230V300 7000 RADZ BKN007 BKN010 12/11 Q1020 TEMPO 4000 RADZ BKN005
12:20
I
12 °C 8 km 700 ft 260° 260° 5 kt METAR EBCI 021020Z 26005KT 220V290 8000 -RADZ BKN007 BKN010 12/11 Q1020 TEMPO 4000 RADZ BKN005
11:50
I
12 °C 8 km 700 ft 250° 250° 5 kt METAR EBCI 020950Z 25005KT 8000 -RADZ BKN007 BKN010 12/11 Q1019 TEMPO 4000 RADZ BKN005
11:20
I
12 °C 8 km 700 ft 250° 250° 7 kt METAR EBCI 020920Z 25007KT 8000 RADZ BKN007 BKN010 12/11 Q1019 TEMPO 4000 RADZ BKN005
10:50
M
12 °C 8 km 1.200 ft 240° 240° 7 kt METAR EBCI 020850Z 24007KT 8000 -RADZ SCT005 BKN012 12/11 Q1019 TEMPO 4000 RADZ BKN005
10:20
I
12 °C 6 km 700 ft 240° 240° 7 kt METAR EBCI 020820Z 24007KT 6000 -RADZ SCT005 BKN007 12/11 Q1019 TEMPO 4000 RADZ BKN005
09:50
I
12 °C 4,5 km 700 ft 240° 240° 5 kt METAR EBCI 020750Z 24005KT 4500 RA BR SCT005 BKN007 12/11 Q1019 TEMPO 3000 RA BKN005
09:20
I
12 °C 5 km 800 ft 250° 250° 7 kt METAR EBCI 020720Z 25007KT 5000 -RA BR SCT006 BKN008 12/11 Q1019 TEMPO 3000 RA BKN005
08:50
I
12 °C 10 km+ 800 ft 250° 250° 8 kt METAR EBCI 020650Z 25008KT 9999 -RA SCT006 BKN008 12/11 Q1018 TEMPO 4000 RA BKN005
08:20
I
12 °C 10 km+ 800 ft 240° 240° 10 kt METAR EBCI 020620Z 24010KT 9999 -RA SCT006 BKN008 12/11 Q1018 TEMPO 4000 RA BKN005
07:50
I
12 °C 10 km+ 800 ft 240° 240° 9 kt METAR EBCI 020550Z 24009KT 9999 -RA SCT006 BKN008 12/11 Q1018 TEMPO 4000 RA BKN005
07:20
I
12 °C 10 km+ 800 ft 240° 240° 10 kt METAR EBCI 020520Z 24010KT 9999 -RA SCT006 BKN008 12/12 Q1017 TEMPO RA BKN005
06:50
I
13 °C 10 km+ 900 ft 240° 240° 11 kt METAR EBCI 020450Z 24011KT 9999 -RA FEW006 BKN009 13/11 Q1017 TEMPO RA
06:20
M
13 °C 10 km+ 1.100 ft 230° 230° 10 kt METAR EBCI 020420Z 23010KT 9999 -RA FEW006 BKN011 13/11 Q1017 TEMPO BKN008
05:50
M
13 °C 9 km 1.600 ft 230° 230° 10 kt METAR EBCI 020350Z 23010KT 9000 -RA FEW012 BKN016 13/12 Q1017 TEMPO BKN012
05:20
M
13 °C 9 km 1.600 ft 230° 230° 11 kt METAR EBCI 020320Z 23011KT 9000 -RA FEW012 BKN016 13/12 Q1017 TEMPO BKN012
04:50
M
13 °C 10 km+ 1.700 ft 240° 240° 10 kt METAR EBCI 020250Z 24010KT 9999 BKN017 13/11 Q1017 TEMPO BKN012
04:20
M
13 °C 10 km+ 1.700 ft 240° 240° 13 kt METAR EBCI 020220Z 24013KT 9999 BKN017 13/11 Q1017 TEMPO BKN012
03:50
M
13 °C 10 km+ 1.700 ft 230° 230° 12 kt METAR EBCI 020150Z 23012KT 9999 BKN017 13/12 Q1017 NOSIG
03:20
M
13 °C 10 km+ 1.700 ft 230° 230° 13 kt METAR EBCI 020120Z 23013KT 9999 BKN017 13/11 Q1017 NOSIG
02:50
M
14 °C 10 km+ 1.700 ft 230° 230° 11 kt METAR EBCI 020050Z 23011KT 9999 BKN017 14/11 Q1017 NOSIG
02:20
M
14 °C 10 km+ 1.700 ft 220° 220° 9 kt METAR EBCI 020020Z 22009KT 9999 BKN017 14/11 Q1017 NOSIG
01:50
M
14 °C 10 km+ 1.700 ft 220° 220° 12 kt METAR EBCI 012350Z 22012KT 9999 BKN017 14/11 Q1017 NOSIG
01:20
M
14 °C 10 km+ 1.700 ft 230° 230° 11 kt METAR EBCI 012320Z 23011KT 9999 BKN017 14/11 Q1017 NOSIG
00:50
M
13 °C 10 km+ 1.700 ft 230° 230° 12 kt METAR EBCI 012250Z 23012KT 9999 BKN017 13/11 Q1017 NOSIG
00:20
M
14 °C 10 km+ 1.700 ft 230° 230° 13 kt METAR EBCI 012220Z 23013KT 9999 BKN017 14/11 Q1016 NOSIG

1 octobre 2022

Temps Code Temps Temp. Vue Base cloud Vent METAR/SPECI
23:50
M
14 °C 10 km+ 2.500 ft 240° 240° 13 kt METAR EBCI 012150Z 24013KT 9999 FEW017 BKN025 14/11 Q1016 NOSIG
23:20
M
14 °C 10 km+ 2.500 ft 240° 240° 12 kt METAR EBCI 012120Z 24012KT 9999 FEW017 BKN025 14/11 Q1016 NOSIG
22:50
V
14 °C 10 km+ - 240° 240° 11 kt METAR EBCI 012050Z 24011KT 9999 FEW030 14/11 Q1016 NOSIG
22:20
V
14 °C 10 km+ - 240° 240° 12 kt METAR EBCI 012020Z 24012KT 9999 FEW030 14/11 Q1015 NOSIG
21:50
V
14 °C 10 km+ - 230° 230° 11 kt METAR EBCI 011950Z 23011KT 9999 FEW030 14/11 Q1015 NOSIG
21:20
V
14 °C 10 km+ - 230° 230° 13 kt METAR EBCI 011920Z 23013KT 9999 FEW030 14/10 Q1014 NOSIG
20:50
V
14 °C 10 km+ - 230° 230° 13 kt METAR EBCI 011850Z 23013KT 9999 FEW030 14/11 Q1014 NOSIG
20:20
V
15 °C 10 km+ - 240° 240° 13 kt METAR EBCI 011820Z 24013KT 9999 FEW030 15/10 Q1014 NOSIG
19:50
V
15 °C 10 km+ - 240° 240° 11 kt METAR EBCI 011750Z 24011KT 9999 FEW040 15/10 Q1013 NOSIG
19:20
V
15 °C 10 km+ - 250° 250° 10 kt METAR EBCI 011720Z 25010KT 9999 FEW040 15/10 Q1013 NOSIG
18:50
V
15 °C 10 km+ - 250° 250° 13 kt METAR EBCI 011650Z 25013KT 9999 FEW040 15/09 Q1012 NOSIG
18:20
V
16 °C 10 km+ - 260° 260° 9 kt METAR EBCI 011620Z 26009KT 220V310 9999 FEW035 16/09 Q1012 NOSIG
17:50
V
16 °C 10 km+ - 260° 260° 11 kt METAR EBCI 011550Z 26011KT 230V290 9999 FEW035 16/08 Q1011 NOSIG
17:20
V
17 °C 10 km+ - 260° 260° 11 kt METAR EBCI 011520Z 26011KT 230V300 9999 FEW035 17/08 Q1011 NOSIG
16:50
V
18 °C 10 km+ - 270° 270° 10 kt METAR EBCI 011450Z 27010KT 230V330 9999 FEW030 SCT045 18/09 Q1010 NOSIG
16:20
V
17 °C 10 km+ - 270° 270° 10 kt METAR EBCI 011420Z 27010KT 230V320 9999 FEW030 SCT045 17/08 Q1010 NOSIG
15:50
V
18 °C 10 km+ - 290° 290° 9 kt METAR EBCI 011350Z 29009KT 250V330 9999 FEW030 SCT045 18/09 Q1010 NOSIG
15:20
V
18 °C 10 km+ - 280° 280° 8 kt METAR EBCI 011320Z 28008KT 250V320 9999 -SHRA FEW020 SCT035 18/10 Q1009 NOSIG
14:50
V
18 °C 10 km+ - 250° 250° 12 kt METAR EBCI 011250Z 25012KT 9999 FEW028 SCT035 18/10 Q1009 NOSIG
14:20
V
17 °C 10 km+ - 250° 250° 13 kt METAR EBCI 011220Z 25013KT 9999 FEW025 SCT035 17/10 Q1009 NOSIG
13:50
V
16 °C 10 km+ - 260° 260° 12 kt METAR EBCI 011150Z 26012KT 220V300 9999 FEW025 SCT035 16/10 Q1008 NOSIG
13:20
V
16 °C 10 km+ - 260° 260° 10 kt METAR EBCI 011120Z 26010KT 230V300 9999 -SHRA FEW022 SCT027 16/10 Q1008 NOSIG
12:50
V
16 °C 10 km+ - 280° 280° 8 kt METAR EBCI 011050Z 28008KT 230V330 9999 FEW022 SCT027 16/09 Q1008 NOSIG
12:20
V
16 °C 10 km+ - 260° 260° 12 - 22 kt METAR EBCI 011020Z 26012G22KT 230V310 9999 FEW020 SCT027 16/11 Q1007 NOSIG
11:50
M
15 °C 10 km+ 2.200 ft 260° 260° 9 kt METAR EBCI 010950Z 26009KT 230V300 9999 FEW018 BKN022 15/10 Q1007 NOSIG
11:20
M
15 °C 10 km+ 2.200 ft 260° 260° 13 kt METAR EBCI 010920Z 26013KT 230V300 9999 FEW016 BKN022 15/11 Q1007 NOSIG
10:50
M
14 °C 10 km+ 2.000 ft 250° 250° 11 kt METAR EBCI 010850Z 25011KT 9999 SCT014 BKN020 14/12 Q1007 NOSIG
10:20
M
15 °C 10 km+ 2.000 ft 250° 250° 13 kt METAR EBCI 010820Z 25013KT 9999 SCT012 BKN020 15/13 Q1006 NOSIG
09:50
V
13 °C 10 km+ - 250° 250° 11 kt METAR EBCI 010750Z 25011KT 9999 FEW010 SCT020 13/12 Q1006 NOSIG
09:20
M
13 °C 10 km+ 1.000 ft 240° 240° 11 kt METAR EBCI 010720Z 24011KT 9999 FEW008 BKN010 BKN014 13/12 Q1005 RESHRA BECMG SCT015
08:50
I
13 °C 10 km+ 900 ft 230° 230° 13 kt METAR EBCI 010650Z 23013KT 9999 -SHRA FEW006 BKN009 BKN014 13/12 Q1005 BECMG BKN015
08:20
I
12 °C 10 km+ 900 ft 220° 220° 12 kt METAR EBCI 010620Z 22012KT 9999 -SHRA SCT006 BKN009 12/12 Q1004 TEMPO 4000 SHRA BKN006
07:50
I
12 °C 10 km+ 900 ft 220° 220° 13 kt METAR EBCI 010550Z 22013KT 9999 -RA SCT006 BKN009 12/11 Q1004 TEMPO 4000 SHRA BKN006
07:20
I
12 °C 10 km+ 700 ft 210° 210° 14 kt METAR EBCI 010520Z 21014KT 9999 -RA SCT006 BKN007 12/11 Q1004 TEMPO 4000 -RADZ BKN004
06:50
I
11 °C 10 km+ 700 ft 200° 200° 14 kt METAR EBCI 010450Z 20014KT 9999 -RA SCT006 BKN007 11/11 Q1004 TEMPO 4000 -RADZ BKN004
06:20
I
11 °C 10 km+ 700 ft 200° 200° 13 kt METAR EBCI 010420Z 20013KT 9999 SCT006 BKN007 11/10 Q1003 TEMPO 4000 -RADZ BKN004
05:50
I
11 °C 7 km 700 ft 200° 200° 15 kt METAR EBCI 010350Z 20015KT 7000 -RA SCT005 BKN007 BKN010 11/10 Q1004 TEMPO 4000 -RADZ BKN004
05:20
I
11 °C 4 km 500 ft 190° 190° 16 kt METAR EBCI 010320Z 19016KT 4000 -RA BKN005 BKN010 11/10 Q1004 NOSIG
04:50
I
10 °C 4 km 600 ft 200° 200° 17 kt METAR EBCI 010250Z 20017KT 4000 -RA BKN006 BKN010 10/09 Q1004 NOSIG
04:20
I
10 °C 4 km 600 ft 200° 200° 18 - 31 kt METAR EBCI 010220Z 20018G31KT 170V230 4000 RA BKN006 BKN010 10/09 Q1004 NOSIG
03:50
I
10 °C 4 km 600 ft 190° 190° 19 kt METAR EBCI 010150Z 19019KT 4000 RA BKN006 BKN010 10/09 Q1004 NOSIG
03:20
I
10 °C 4,5 km 1.200 ft 190° 190° 17 - 27 kt METAR EBCI 010120Z 19017G27KT 160V220 4500 RA SCT007 BKN012 10/09 Q1004 NOSIG
02:50
M
10 °C 5 km 1.500 ft 190° 190° 18 kt METAR EBCI 010050Z 19018KT 5000 RA SCT009 BKN015 10/09 Q1005 NOSIG
02:20
M
10 °C 5 km 1.500 ft 190° 190° 16 - 28 kt METAR EBCI 010020Z 19016G28KT 5000 RA SCT009 BKN015 10/09 Q1005 NOSIG
01:50
M
10 °C 7 km - 200° 200° 16 kt METAR EBCI 302350Z 20016KT 7000 -RA SCT015 10/09 Q1006 NOSIG
01:20
M
10 °C 7 km - 200° 200° 11 kt METAR EBCI 302320Z 20011KT 7000 -RA SCT015 10/08 Q1007 NOSIG
00:50
M
10 °C 7 km - 200° 200° 14 kt METAR EBCI 302250Z 20014KT 7000 -RA SCT040 10/08 Q1007 NOSIG
00:20
V
11 °C 10 km+ - 200° 200° 14 kt METAR EBCI 302220Z 20014KT 9999 -RA SCT040 11/08 Q1008 NOSIG

30 septembre 2022

Temps Code Temps Temp. Vue Base cloud Vent METAR/SPECI
23:50
V
11 °C 10 km+ - 200° 200° 14 kt METAR EBCI 302150Z 20014KT 9999 -RA SCT045 11/07 Q1007 NOSIG
23:20
V
12 °C 10 km+ - 200° 200° 13 kt METAR EBCI 302120Z 20013KT 9999 -RA NSC 12/06 Q1008 NOSIG
22:50
V
12 °C 10 km+ - 200° 200° 13 kt METAR EBCI 302050Z 20013KT CAVOK 12/06 Q1008 NOSIG
22:20
V
12 °C 10 km+ - 200° 200° 12 kt METAR EBCI 302020Z 20012KT CAVOK 12/06 Q1008 NOSIG
21:50
V
12 °C 10 km+ - 200° 200° 11 kt METAR EBCI 301950Z 20011KT CAVOK 12/06 Q1009 NOSIG
21:20
V
12 °C 10 km+ - 200° 200° 11 kt METAR EBCI 301920Z 20011KT CAVOK 12/06 Q1009 NOSIG
20:50
V
12 °C 10 km+ - 200° 200° 9 kt METAR EBCI 301850Z 20009KT CAVOK 12/06 Q1009 NOSIG
20:20
V
12 °C 10 km+ - 200° 200° 9 kt METAR EBCI 301820Z 20009KT CAVOK 12/06 Q1010 NOSIG
19:50
V
13 °C 10 km+ - 190° 190° 7 kt METAR EBCI 301750Z 19007KT 9999 FEW045 13/06 Q1010 NOSIG
19:20
V
13 °C 10 km+ - 200° 200° 9 kt METAR EBCI 301720Z 20009KT 9999 FEW042 13/06 Q1010 NOSIG
18:50
V
13 °C 10 km+ - 200° 200° 9 kt METAR EBCI 301650Z 20009KT 9999 FEW042 13/06 Q1010 NOSIG
18:20
V
14 °C 10 km+ - 200° 200° 10 kt METAR EBCI 301620Z 20010KT 9999 FEW040 14/06 Q1010 NOSIG
17:50
V
14 °C 10 km+ - 210° 210° 12 kt METAR EBCI 301550Z 21012KT 9999 FEW035 14/05 Q1010 NOSIG
17:20
V
15 °C 10 km+ - 220° 220° 12 kt METAR EBCI 301520Z 22012KT 9999 FEW035 15/05 Q1010 NOSIG
16:50
V
15 °C 10 km+ - 210° 210° 13 kt METAR EBCI 301450Z 21013KT 180V240 9999 FEW035 15/06 Q1010 NOSIG
Données plus anciennes

Nous et des tiers suivons ton comportement sur Internet sur notre site Web à l'aide de cookies. Si tu continues, nous supposons que tu acceptes notre politique en matière de cookies. Apprendre plus